Overview Statistics Trail Chart Weather Telemetry Raw packets
 

This is the latest recevied weather packets stored in our database for station/object TA2LKM-11. If no packets are shown the sender has not sent any weather packets the latest 10 day(s).

<< 13 14 15 16 17 18 19 >>
Time Temp. Humidity Pressure Rain* Wind** Luminosity Snow
1788392161 20° C 55% 1013.3 hPa - - - -
1788392072 20.56° C 54% 1013.3 hPa - - - -
1788391182 20° C 54% 1013.3 hPa - - - -
1788391076 20° C 54% 1013.3 hPa - - - -
1788390987 20.56° C 54% 1013.3 hPa - - - -
1788390086 20° C 53% 1013.3 hPa - - - -
1788389186 21.11° C 55% 1013.4 hPa - - - -
1788388285 21.67° C 53% 1013.5 hPa - - - -
1788387384 21.11° C 54% 1013.7 hPa - - - -
1788386483 21.67° C 51% 1013.6 hPa - - - -
1788386394 22.22° C 50% 1013.5 hPa - - - -
1788385494 23.89° C 48% 1013.6 hPa - - - -
1788384593 23.89° C 47% 1013.6 hPa - - - -
1788383692 23.89° C 42% 1013.5 hPa - - - -
1788382791 23.89° C 41% 1013.4 hPa - - - -
1788382749 24.44° C 40% 1013.4 hPa - - - -
1788382661 24.44° C 40% 1013.5 hPa - - - -
1788381760 25° C 35% 1013.2 hPa - - - -
1788380858 25° C 34% 1013.3 hPa - - - -
1788380770 25.56° C 35% 1013.4 hPa - - - -
1788379869 26.11° C 31% 1013.4 hPa - - - -
1788379775 26.67° C 31% 1013.5 hPa - - - -
1788379686 26.67° C 30% 1013.4 hPa - - - -
1788378786 26.67° C 27% 1013.4 hPa - - - -
1788377885 26.67° C 29% 1013.3 hPa - - - -

* Rain since midnight (hover to see other rain measurements)
** Current wind speed in m/s (hover to see current wind gust speed)